Time;durP1;ratioP1;P1;durP2;ratioP2;P2;SDS_P1;SDS_P2;PMS_P1;PMS_P2;Temp;Humidity;BMP_temperature;BMP_pressure;BME280_temperature;BME280_humidity;BME280_pressure;Samples;Min_cycle;Max_cycle;Signal;HPM_P1;HPM_P2
2021/07/30 00:01:33;;;;;;;12.38;6.60;;;13.80;95.50;;;;;;5094025;27;20065;-73
2021/07/30 00:03:59;;;;;;;14.57;6.60;;;13.70;95.50;;;;;;5094615;27;20128;-74
2021/07/30 00:06:25;;;;;;;13.05;7.43;;;13.70;95.60;;;;;;5108115;27;20508;-74
2021/07/30 00:08:51;;;;;;;11.82;7.22;;;13.70;95.60;;;;;;5128252;27;20039;-74
2021/07/30 00:11:17;;;;;;;11.57;6.65;;;13.70;95.70;;;;;;5135666;27;20448;-74
2021/07/30 00:13:46;;;;;;;13.95;6.50;;;13.60;95.70;;;;;;5106488;27;20470;-76
2021/07/30 00:16:12;;;;;;;14.38;6.55;;;13.60;95.80;;;;;;5092480;27;20043;-73
2021/07/30 00:18:38;;;;;;;11.05;6.45;;;13.60;95.90;;;;;;5106822;27;20039;-74
2021/07/30 00:21:04;;;;;;;12.52;6.88;;;13.60;95.90;;;;;;5092704;27;20027;-74
2021/07/30 00:23:30;;;;;;;11.93;6.72;;;13.50;96.00;;;;;;5098737;27;20390;-74
2021/07/30 00:26:01;;;;;;;12.20;6.88;;;13.50;96.20;;;;;;5109130;27;20036;-74
2021/07/30 00:28:27;;;;;;;14.43;7.03;;;13.50;96.20;;;;;;5113590;27;20524;-75
2021/07/30 00:30:53;;;;;;;11.95;6.80;;;13.50;96.20;;;;;;5110335;27;20038;-74
2021/07/30 00:33:20;;;;;;;12.25;6.75;;;13.50;96.20;;;;;;5076843;27;20043;-75
2021/07/30 00:35:45;;;;;;;11.65;6.75;;;13.50;96.30;;;;;;5093230;27;20604;-75
2021/07/30 00:38:11;;;;;;;11.85;7.43;;;13.50;96.30;;;;;;5108990;27;20035;-74
2021/07/30 00:40:37;;;;;;;10.07;7.45;;;13.50;96.40;;;;;;5075280;27;20044;-74
2021/07/30 00:43:05;;;;;;;11.05;7.43;;;13.50;96.30;;;;;;5094861;27;20035;-74
2021/07/30 00:45:31;;;;;;;11.45;7.18;;;13.50;96.40;;;;;;5094320;27;20031;-74
2021/07/30 00:47:57;;;;;;;12.57;7.18;;;13.40;96.40;;;;;;5080431;27;20059;-75
2021/07/30 00:50:24;;;;;;;12.75;7.70;;;13.40;96.50;;;;;;5127603;27;20039;-75
2021/07/30 00:52:52;;;;;;;11.88;7.45;;;13.40;96.60;;;;;;5108365;27;20035;-74
2021/07/30 00:55:18;;;;;;;13.55;7.60;;;13.40;96.70;;;;;;5125363;27;20465;-74
2021/07/30 00:57:45;;;;;;;14.18;8.07;;;13.40;96.70;;;;;;5130326;27;20058;-74
2021/07/30 01:00:11;;;;;;;14.98;7.68;;;13.40;96.70;;;;;;5094679;27;20039;-74
2021/07/30 01:02:37;;;;;;;11.90;7.32;;;13.40;96.70;;;;;;5116151;27;20046;-75
2021/07/30 01:05:04;;;;;;;16.85;7.90;;;13.30;96.70;;;;;;5109389;27;20106;-74
2021/07/30 01:07:30;;;;;;;16.48;7.93;;;13.30;96.80;;;;;;5115353;27;20042;-76
2021/07/30 01:09:56;;;;;;;16.00;8.27;;;13.30;96.80;;;;;;5085953;27;20490;-77
2021/07/30 01:12:22;;;;;;;16.45;8.77;;;13.30;96.80;;;;;;5108925;27;20031;-75
2021/07/30 01:14:48;;;;;;;14.48;8.80;;;13.30;96.90;;;;;;5131521;27;20061;-75
2021/07/30 01:17:14;;;;;;;13.75;7.70;;;13.30;96.90;;;;;;5090938;27;20032;-75
2021/07/30 01:19:40;;;;;;;13.88;7.85;;;13.30;96.90;;;;;;5123641;27;20088;-75
2021/07/30 01:22:27;;;;;;;15.07;8.55;;;13.30;96.90;;;;;;5106953;27;20049;-75
2021/07/30 01:24:54;;;;;;;14.02;8.40;;;13.30;97.00;;;;;;5118387;27;20394;-75
2021/07/30 01:27:21;;;;;;;14.05;7.85;;;13.30;97.00;;;;;;5101514;27;20473;-74
2021/07/30 01:29:48;;;;;;;17.92;8.98;;;13.30;97.10;;;;;;5107214;27;20510;-75
2021/07/30 01:32:14;;;;;;;14.07;8.55;;;13.30;97.10;;;;;;5107858;27;20047;-76
2021/07/30 01:34:42;;;;;;;15.38;8.32;;;13.30;97.00;;;;;;5125523;27;20378;-76
2021/07/30 01:37:09;;;;;;;14.18;8.50;;;13.30;97.10;;;;;;5123702;27;20063;-74
2021/07/30 01:39:36;;;;;;;14.35;8.18;;;13.30;97.10;;;;;;5087116;27;20534;-74
2021/07/30 01:42:02;;;;;;;15.30;9.00;;;13.20;97.10;;;;;;5091033;27;20059;-74
2021/07/30 01:44:28;;;;;;;16.70;8.40;;;13.20;97.20;;;;;;5088252;27;20036;-74
2021/07/30 01:46:54;;;;;;;14.60;8.77;;;13.20;97.20;;;;;;5090793;27;20031;-74
2021/07/30 01:49:20;;;;;;;14.95;8.75;;;13.20;97.20;;;;;;5104269;27;20678;-76
2021/07/30 01:51:46;;;;;;;19.50;8.57;;;13.20;97.30;;;;;;5114358;27;20126;-75
2021/07/30 01:54:14;;;;;;;12.55;9.38;;;13.20;97.30;;;;;;5090015;27;20096;-75
2021/07/30 01:56:43;;;;;;;16.95;9.70;;;13.10;97.40;;;;;;5090182;27;20031;-76
2021/07/30 01:59:10;;;;;;;13.30;9.20;;;13.10;97.80;;;;;;5073642;27;20037;-75
2021/07/30 02:01:36;;;;;;;18.05;9.48;;;13.10;97.50;;;;;;5087735;27;20574;-75
2021/07/30 02:04:02;;;;;;;17.45;9.18;;;13.10;97.60;;;;;;5104519;27;20061;-75
2021/07/30 02:06:28;;;;;;;17.42;8.65;;;13.10;97.60;;;;;;5114301;27;20477;-74
2021/07/30 02:08:53;;;;;;;16.63;9.50;;;13.00;97.60;;;;;;5090176;27;21878;-74
2021/07/30 02:11:19;;;;;;;13.98;9.10;;;13.00;97.60;;;;;;5125610;27;20035;-75
2021/07/30 02:16:30;;;;;;;18.60;9.55;;;13.00;97.70;;;;;;5122784;27;20039;-75
2021/07/30 02:18:56;;;;;;;19.42;10.20;;;13.00;97.80;;;;;;5072891;27;20095;-76
2021/07/30 02:21:25;;;;;;;15.07;9.73;;;13.00;97.80;;;;;;5130059;27;20068;-73
2021/07/30 02:23:51;;;;;;;16.98;10.02;;;13.00;97.90;;;;;;5108385;27;20041;-74
2021/07/30 02:26:16;;;;;;;21.00;10.07;;;12.90;98.00;;;;;;5133328;27;20043;-74
2021/07/30 02:28:42;;;;;;;12.55;8.68;;;12.90;98.00;;;;;;5102190;27;20045;-74
2021/07/30 02:31:09;;;;;;;20.35;10.73;;;12.90;98.10;;;;;;5111029;27;20047;-75
2021/07/30 02:33:35;;;;;;;17.90;10.27;;;12.90;98.20;;;;;;5070704;27;20099;-74
2021/07/30 02:36:01;;;;;;;13.70;9.55;;;12.90;98.30;;;;;;5077213;27;20121;-75
2021/07/30 02:38:27;;;;;;;17.80;10.10;;;12.80;98.40;;;;;;5087812;27;20138;-74
2021/07/30 02:40:53;;;;;;;17.45;10.07;;;12.80;98.40;;;;;;5104179;27;20512;-74
2021/07/30 02:43:19;;;;;;;17.05;10.20;;;12.90;98.40;;;;;;5108149;27;20122;-75
2021/07/30 02:45:44;;;;;;;19.27;10.30;;;12.80;98.50;;;;;;5123526;27;20042;-76
2021/07/30 02:48:10;;;;;;;16.65;10.60;;;12.80;98.60;;;;;;5110346;27;20590;-74
2021/07/30 02:50:36;;;;;;;18.42;10.38;;;12.80;98.70;;;;;;5094511;27;20039;-74
2021/07/30 02:53:02;;;;;;;20.45;10.68;;;12.80;98.80;;;;;;5076187;27;20031;-73
2021/07/30 02:55:28;;;;;;;19.55;10.40;;;12.80;98.80;;;;;;5097073;27;20035;-74
2021/07/30 02:57:54;;;;;;;15.30;9.88;;;12.80;98.80;;;;;;5077793;27;20054;-74
2021/07/30 03:00:20;;;;;;;21.50;11.30;;;12.80;98.90;;;;;;5079793;27;20482;-74
2021/07/30 03:02:46;;;;;;;20.42;11.27;;;12.70;99.00;;;;;;5088076;27;20080;-74
2021/07/30 03:05:11;;;;;;;17.33;10.60;;;12.70;99.00;;;;;;5112772;27;20049;-74
2021/07/30 03:07:37;;;;;;;19.15;10.10;;;12.70;99.10;;;;;;5096047;27;20070;-74
2021/07/30 03:10:03;;;;;;;20.00;11.27;;;12.70;99.20;;;;;;5122991;27;20471;-75
2021/07/30 03:12:29;;;;;;;17.27;11.00;;;12.70;99.20;;;;;;5096282;27;20043;-75
2021/07/30 03:14:55;;;;;;;17.25;10.48;;;12.60;99.30;;;;;;5109227;27;20052;-73
2021/07/30 03:17:21;;;;;;;21.13;11.60;;;12.70;99.40;;;;;;5096589;27;20125;-76
2021/07/30 03:19:47;;;;;;;18.80;11.60;;;12.70;99.50;;;;;;5102611;27;20035;-76
2021/07/30 03:22:13;;;;;;;24.73;11.73;;;12.60;99.50;;;;;;5109410;27;20571;-76
2021/07/30 03:24:39;;;;;;;20.38;11.18;;;12.60;99.60;;;;;;5092975;27;20039;-77
2021/07/30 03:27:06;;;;;;;17.85;11.13;;;12.60;99.60;;;;;;5093041;27;20035;-73
2021/07/30 03:29:31;;;;;;;16.95;10.38;;;12.60;99.70;;;;;;5129930;27;20039;-74
2021/07/30 03:31:57;;;;;;;16.65;11.05;;;12.60;99.70;;;;;;5093904;27;20035;-74
2021/07/30 03:34:23;;;;;;;16.40;11.13;;;12.60;99.70;;;;;;5092131;27;20043;-73
2021/07/30 03:36:50;;;;;;;17.40;12.30;;;12.60;99.70;;;;;;5108778;27;20118;-74
2021/07/30 03:39:15;;;;;;;18.35;10.95;;;12.70;99.80;;;;;;5094016;27;20110;-74
2021/07/30 03:41:41;;;;;;;18.15;12.40;;;12.60;99.80;;;;;;5109175;27;20039;-74
2021/07/30 03:44:07;;;;;;;18.50;10.95;;;12.60;99.80;;;;;;5093214;27;20040;-73
2021/07/30 03:46:34;;;;;;;15.95;10.85;;;12.60;99.90;;;;;;5107150;27;20039;-73
2021/07/30 03:49:00;;;;;;;16.20;11.55;;;12.60;99.90;;;;;;5074957;27;20035;-73
2021/07/30 03:51:28;;;;;;;20.13;11.68;;;12.60;99.90;;;;;;5106507;27;20098;-73
2021/07/30 03:53:54;;;;;;;21.13;12.32;;;12.60;99.90;;;;;;5110023;27;20070;-74
2021/07/30 03:56:19;;;;;;;19.20;12.18;;;12.60;99.90;;;;;;5110070;27;20397;-73
2021/07/30 03:58:47;;;;;;;17.70;11.30;;;12.60;99.90;;;;;;5134135;27;20075;-73
2021/07/30 04:01:13;;;;;;;17.05;11.05;;;12.60;99.90;;;;;;5091184;27;20118;-74
2021/07/30 04:03:40;;;;;;;20.25;11.10;;;12.50;99.90;;;;;;5091731;27;20122;-75
2021/07/30 04:06:06;;;;;;;16.92;11.00;;;12.50;99.90;;;;;;5110349;27;20034;-75
2021/07/30 04:08:35;;;;;;;16.65;10.68;;;12.60;99.90;;;;;;5091671;27;20078;-74
2021/07/30 04:11:02;;;;;;;18.55;11.65;;;12.60;99.90;;;;;;5127253;27;20039;-72
2021/07/30 04:13:28;;;;;;;18.65;11.90;;;12.60;99.90;;;;;;5107986;27;20047;-73
2021/07/30 04:16:00;;;;;;;20.45;10.80;;;12.60;99.90;;;;;;5126450;27;20508;-74
2021/07/30 04:18:25;;;;;;;20.38;11.95;;;12.60;99.90;;;;;;5107720;27;20092;-72
2021/07/30 04:20:51;;;;;;;20.05;11.23;;;12.60;99.90;;;;;;5104076;27;20038;-73
2021/07/30 04:23:17;;;;;;;19.83;11.05;;;12.60;99.90;;;;;;5110522;27;20041;-73
2021/07/30 04:25:43;;;;;;;20.00;11.63;;;12.60;99.90;;;;;;5074714;27;20047;-73
2021/07/30 04:28:09;;;;;;;19.52;11.55;;;12.70;99.90;;;;;;5092162;27;20043;-73
2021/07/30 04:30:35;;;;;;;20.42;11.68;;;12.70;99.90;;;;;;5090516;27;20142;-73
2021/07/30 04:33:04;;;;;;;15.20;10.32;;;12.70;99.90;;;;;;5074273;27;20039;-73
2021/07/30 04:35:30;;;;;;;17.60;11.55;;;12.70;99.90;;;;;;5107654;27;20136;-74
2021/07/30 04:38:01;;;;;;;19.80;11.18;;;12.70;99.90;;;;;;5126278;27;20039;-73
2021/07/30 04:40:28;;;;;;;23.00;11.40;;;12.70;99.90;;;;;;5077211;28;20040;-73
2021/07/30 04:42:58;;;;;;;16.98;10.85;;;12.70;99.90;;;;;;5128938;27;20033;-73
2021/07/30 04:45:25;;;;;;;17.05;11.32;;;12.80;99.90;;;;;;5126905;27;20119;-73
2021/07/30 04:47:51;;;;;;;18.48;10.25;;;12.80;99.90;;;;;;5088371;27;20347;-73
2021/07/30 04:50:17;;;;;;;18.52;10.75;;;12.80;99.90;;;;;;5072787;27;20483;-76
2021/07/30 04:52:43;;;;;;;19.05;10.00;;;12.80;99.90;;;;;;5123765;27;20051;-76
2021/07/30 04:55:12;;;;;;;19.00;10.52;;;12.80;99.90;;;;;;5121944;27;20089;-76
2021/07/30 04:57:38;;;;;;;19.13;10.88;;;12.80;99.90;;;;;;5106298;27;20239;-74
2021/07/30 05:00:07;;;;;;;15.60;11.07;;;12.80;99.90;;;;;;5106077;27;20031;-75
2021/07/30 05:02:34;;;;;;;16.88;10.80;;;12.90;99.90;;;;;;5097277;28;20144;-75
2021/07/30 05:05:00;;;;;;;18.05;10.57;;;12.90;99.90;;;;;;5086022;27;20043;-75
2021/07/30 05:07:29;;;;;;;19.00;10.90;;;12.90;99.90;;;;;;5129726;27;20548;-75
2021/07/30 05:09:55;;;;;;;16.48;10.57;;;13.00;99.90;;;;;;5090889;27;20070;-75
2021/07/30 05:12:35;;;;;;;18.23;10.25;;;13.10;99.90;;;;;;5095180;27;20039;-75
2021/07/30 05:15:01;;;;;;;17.83;9.95;;;13.20;99.90;;;;;;5097586;28;20062;-76
2021/07/30 05:17:32;;;;;;;17.40;9.95;;;13.20;99.90;;;;;;5104873;28;20059;-75
2021/07/30 05:19:57;;;;;;;18.17;9.95;;;13.30;99.90;;;;;;5094067;28;20044;-76
2021/07/30 05:22:23;;;;;;;16.10;10.10;;;13.40;99.90;;;;;;5099995;28;20504;-76
2021/07/30 05:24:49;;;;;;;16.42;10.80;;;13.50;99.90;;;;;;5065928;28;20048;-75
2021/07/30 05:27:15;;;;;;;19.77;9.90;;;13.50;99.90;;;;;;5085123;28;20047;-76
2021/07/30 05:29:41;;;;;;;19.13;10.27;;;13.60;99.90;;;;;;5089344;28;20050;-76
2021/07/30 05:32:07;;;;;;;16.45;10.50;;;13.70;99.80;;;;;;5093696;28;20482;-78
2021/07/30 05:34:34;;;;;;;15.57;10.02;;;13.80;99.80;;;;;;5104234;28;20057;-77
2021/07/30 05:36:59;;;;;;;15.52;9.88;;;13.80;99.80;;;;;;5105836;28;20044;-76
2021/07/30 05:39:31;;;;;;;15.27;9.55;;;13.90;99.80;;;;;;5081239;28;20785;-76
2021/07/30 05:42:01;;;;;;;18.23;10.40;;;14.00;99.80;;;;;;5104235;28;20040;-76
2021/07/30 05:44:39;;;;;;;19.63;9.75;;;14.10;99.60;;;;;;5106419;28;20492;-76
2021/07/30 05:47:05;;;;;;;15.90;9.50;;;14.20;99.50;;;;;;5086579;28;20032;-76
2021/07/30 05:49:34;;;;;;;18.13;10.05;;;14.30;99.40;;;;;;5101808;28;20474;-75
2021/07/30 05:52:01;;;;;;;16.23;10.25;;;14.40;99.40;;;;;;5099560;28;20085;-76
2021/07/30 05:54:33;;;;;;;18.27;9.07;;;14.60;99.40;;;;;;5094549;28;20047;-76
2021/07/30 05:56:59;;;;;;;20.02;10.77;;;14.70;99.30;;;;;;5067798;28;20126;-77
2021/07/30 05:59:27;;;;;;;17.50;9.52;;;14.80;99.20;;;;;;5106200;28;20114;-76
2021/07/30 06:01:52;;;;;;;16.83;9.40;;;14.80;99.10;;;;;;5093005;28;20039;-76
2021/07/30 06:04:18;;;;;;;17.48;10.40;;;14.90;99.00;;;;;;5082701;28;20119;-74
2021/07/30 06:06:44;;;;;;;20.55;9.95;;;14.90;98.80;;;;;;5106125;28;20063;-74
2021/07/30 06:09:10;;;;;;;14.40;9.20;;;14.90;98.90;;;;;;5094350;28;20047;-75
2021/07/30 06:11:36;;;;;;;16.15;9.55;;;15.00;98.90;;;;;;5083598;28;20051;-74
2021/07/30 06:14:02;;;;;;;14.70;10.00;;;15.00;98.80;;;;;;5059113;28;20052;-75
2021/07/30 06:16:28;;;;;;;16.83;9.35;;;15.00;98.80;;;;;;5080760;28;20250;-74
2021/07/30 06:18:54;;;;;;;18.20;9.95;;;15.10;98.80;;;;;;5047359;28;20040;-74
2021/07/30 06:21:21;;;;;;;15.68;9.23;;;15.10;98.80;;;;;;5059138;28;20039;-76
2021/07/30 06:23:47;;;;;;;16.45;9.43;;;15.20;98.90;;;;;;5086396;28;20039;-75
2021/07/30 06:26:13;;;;;;;18.50;10.68;;;15.20;98.80;;;;;;5082154;28;20043;-75
2021/07/30 06:28:39;;;;;;;17.35;9.90;;;15.30;98.70;;;;;;5075472;28;20048;-75
2021/07/30 06:31:05;;;;;;;15.52;8.68;;;15.40;98.60;;;;;;5078542;28;20126;-75
2021/07/30 06:33:32;;;;;;;18.13;9.23;;;15.50;98.50;;;;;;5078070;28;20487;-77
2021/07/30 06:35:58;;;;;;;12.70;9.55;;;15.50;98.40;;;;;;5062207;28;20036;-74
2021/07/30 06:38:24;;;;;;;22.85;8.98;;;15.60;98.20;;;;;;5065413;28;20036;-75
2021/07/30 06:40:50;;;;;;;16.63;9.48;;;15.60;98.20;;;;;;5059949;28;20135;-74
2021/07/30 06:43:16;;;;;;;15.93;9.25;;;15.70;98.10;;;;;;5088290;28;20040;-74
2021/07/30 06:45:44;;;;;;;12.65;7.80;;;15.80;98.00;;;;;;5052515;28;20044;-74
2021/07/30 06:48:11;;;;;;;18.58;9.13;;;15.90;97.80;;;;;;5078328;28;20476;-74
2021/07/30 06:50:36;;;;;;;15.48;9.23;;;15.90;97.70;;;;;;5077668;28;20040;-74
2021/07/30 06:53:02;;;;;;;13.52;7.68;;;15.90;97.50;;;;;;5076384;28;20032;-75
2021/07/30 06:55:28;;;;;;;15.07;8.23;;;15.90;97.50;;;;;;5086740;28;20453;-74
2021/07/30 06:57:54;;;;;;;18.23;8.68;;;16.00;97.60;;;;;;5073538;28;20051;-76
2021/07/30 07:00:20;;;;;;;15.43;9.02;;;16.10;97.70;;;;;;5077886;28;20038;-74
2021/07/30 07:02:46;;;;;;;16.23;8.80;;;16.20;97.70;;;;;;5071976;28;20078;-75
2021/07/30 07:05:12;;;;;;;18.42;9.25;;;16.30;97.70;;;;;;5078683;28;20029;-75
2021/07/30 07:07:41;;;;;;;20.30;8.80;;;16.50;97.50;;;;;;5074518;28;20089;-75
2021/07/30 07:10:07;;;;;;;17.55;7.90;;;16.60;97.30;;;;;;5080113;28;20048;-77
2021/07/30 07:12:33;;;;;;;15.15;8.40;;;16.80;97.10;;;;;;5076161;28;20518;-78
2021/07/30 07:14:59;;;;;;;15.82;8.25;;;17.00;97.10;;;;;;5098496;27;20055;-77
2021/07/30 07:17:25;;;;;;;14.48;7.82;;;17.10;96.70;;;;;;5089910;28;20054;-77
2021/07/30 07:19:51;;;;;;;15.68;8.15;;;17.20;96.50;;;;;;5088013;28;20593;-76
2021/07/30 07:22:17;;;;;;;14.82;7.82;;;17.30;96.40;;;;;;5104950;27;20048;-75
2021/07/30 07:24:43;;;;;;;12.73;7.65;;;17.30;96.00;;;;;;5105612;27;20490;-77
2021/07/30 07:27:09;;;;;;;17.77;8.60;;;17.30;96.00;;;;;;5089793;27;20089;-77
2021/07/30 07:29:35;;;;;;;15.95;7.90;;;17.40;96.00;;;;;;5109677;27;20557;-75
2021/07/30 07:32:01;;;;;;;18.40;8.65;;;17.40;95.80;;;;;;5109336;27;20124;-75
2021/07/30 07:34:27;;;;;;;17.13;8.50;;;17.50;95.90;;;;;;5105612;28;20486;-75
2021/07/30 07:36:53;;;;;;;16.17;8.32;;;17.50;95.70;;;;;;5084290;28;20036;-75
2021/07/30 07:39:20;;;;;;;17.23;8.07;;;17.60;95.50;;;;;;5084685;28;20568;-75
2021/07/30 07:41:47;;;;;;;19.05;8.57;;;17.70;95.60;;;;;;5088037;28;20081;-75
2021/07/30 07:44:15;;;;;;;18.80;8.02;;;17.70;95.40;;;;;;5107964;27;20043;-76
2021/07/30 07:46:41;;;;;;;17.95;7.43;;;17.80;95.10;;;;;;5089138;28;20381;-76
2021/07/30 07:49:06;;;;;;;16.55;8.10;;;17.90;95.10;;;;;;5106651;28;20402;-75
2021/07/30 07:51:32;;;;;;;17.33;8.05;;;17.90;94.90;;;;;;5106946;27;20035;-74
2021/07/30 07:53:58;;;;;;;19.23;7.25;;;18.00;94.90;;;;;;5106174;27;20627;-77
2021/07/30 07:56:24;;;;;;;13.25;7.45;;;18.00;94.60;;;;;;5069997;28;20118;-77
2021/07/30 07:58:50;;;;;;;14.00;7.22;;;18.10;94.60;;;;;;5107398;28;20028;-75
2021/07/30 08:01:16;;;;;;;17.05;7.22;;;18.10;94.30;;;;;;5089269;28;20035;-76
2021/07/30 08:03:46;;;;;;;16.27;7.07;;;18.20;94.10;;;;;;5105104;28;20394;-76
2021/07/30 08:06:22;;;;;;;14.70;7.32;;;18.20;94.00;;;;;;5091540;27;20114;-77
2021/07/30 08:08:50;;;;;;;14.18;6.53;;;18.30;93.90;;;;;;5115334;27;20031;-75
2021/07/30 08:11:16;;;;;;;16.17;7.00;;;18.40;93.90;;;;;;5109171;27;20110;-77
2021/07/30 08:13:42;;;;;;;14.63;7.45;;;18.50;93.80;;;;;;5103480;27;20035;-77
2021/07/30 08:16:09;;;;;;;16.70;7.25;;;18.50;93.50;;;;;;5079771;27;20504;-76
2021/07/30 08:18:35;;;;;;;14.02;6.97;;;18.70;93.60;;;;;;5106763;27;20056;-76
2021/07/30 08:21:02;;;;;;;16.48;7.22;;;18.80;93.70;;;;;;5126555;27;20047;-77
2021/07/30 08:23:28;;;;;;;15.55;7.10;;;18.90;93.30;;;;;;5125770;27;20649;-76
2021/07/30 08:25:54;;;;;;;17.70;7.75;;;18.90;93.00;;;;;;5085407;27;20085;-77
2021/07/30 08:28:21;;;;;;;17.20;7.88;;;18.90;92.70;;;;;;5089351;27;20035;-76
2021/07/30 08:30:47;;;;;;;16.50;7.30;;;18.90;92.40;;;;;;5109238;27;20514;-76
2021/07/30 08:33:13;;;;;;;15.27;7.20;;;18.80;92.50;;;;;;5094631;27;20101;-76
2021/07/30 08:35:41;;;;;;;13.48;7.15;;;18.80;92.80;;;;;;5123504;27;20082;-76
2021/07/30 08:38:07;;;;;;;16.20;6.93;;;18.80;92.40;;;;;;5073386;27;20485;-75
2021/07/30 08:40:34;;;;;;;12.07;6.45;;;18.90;92.50;;;;;;5107083;27;20039;-76
2021/07/30 08:43:00;;;;;;;13.65;6.60;;;18.90;92.80;;;;;;5127372;27;20120;-76
2021/07/30 08:45:26;;;;;;;15.05;6.70;;;19.00;92.80;;;;;;5109783;27;20039;-76
2021/07/30 08:47:53;;;;;;;15.20;6.90;;;19.10;92.60;;;;;;5108458;27;20504;-76
2021/07/30 08:50:20;;;;;;;13.70;7.00;;;19.00;92.20;;;;;;5085961;27;20516;-76
2021/07/30 08:52:53;;;;;;;13.52;6.70;;;19.10;92.40;;;;;;5111478;27;20042;-76
2021/07/30 08:55:27;;;;;;;12.48;6.45;;;19.20;91.80;;;;;;5124016;27;20038;-76
2021/07/30 08:57:53;;;;;;;11.38;6.47;;;19.30;91.00;;;;;;5113732;27;20408;-77
2021/07/30 09:00:21;;;;;;;10.82;6.53;;;19.30;90.80;;;;;;5108142;27;20054;-76
2021/07/30 09:02:47;;;;;;;15.23;6.47;;;19.30;91.00;;;;;;5126786;27;20046;-77
2021/07/30 09:05:25;;;;;;;9.45;6.25;;;19.30;91.20;;;;;;5127124;27;20118;-75
2021/07/30 09:07:51;;;;;;;11.93;6.22;;;19.40;91.30;;;;;;5106857;27;20193;-76
2021/07/30 09:10:38;;;;;;;10.65;6.05;;;19.50;91.40;;;;;;5125917;27;20035;-76
2021/07/30 09:13:19;;;;;;;15.95;6.25;;;19.60;90.80;;;;;;5105103;27;20477;-75
2021/07/30 09:16:01;;;;;;;12.70;5.72;;;19.70;88.50;;;;;;5103791;27;20047;-75
2021/07/30 09:18:29;;;;;;;10.38;5.43;;;19.70;88.90;;;;;;5112845;27;20168;-75
2021/07/30 09:21:13;;;;;;;12.70;5.47;;;19.60;89.80;;;;;;5111154;27;20038;-76
2021/07/30 09:23:49;;;;;;;10.00;6.13;;;19.70;90.10;;;;;;5089543;27;20035;-77
2021/07/30 09:26:39;;;;;;;7.88;5.13;;;19.70;89.50;;;;;;5121827;27;20058;-75
2021/07/30 09:29:16;;;;;;;11.30;5.65;;;19.70;89.90;;;;;;5091321;27;20489;-75
2021/07/30 09:31:57;;;;;;;12.48;5.75;;;19.70;89.10;;;;;;5124456;27;20039;-75
2021/07/30 09:34:27;;;;;;;11.00;5.35;;;19.80;89.30;;;;;;5107627;27;20058;-75
2021/07/30 09:36:59;;;;;;;10.90;5.78;;;19.90;89.10;;;;;;5128271;27;20042;-76
2021/07/30 09:39:26;;;;;;;10.63;5.75;;;19.90;88.70;;;;;;5126846;27;20046;-75
2021/07/30 09:42:01;;;;;;;13.02;6.15;;;20.00;89.70;;;;;;5126006;27;20031;-75
2021/07/30 09:44:28;;;;;;;9.85;5.15;;;20.00;89.60;;;;;;5104491;27;20600;-75
2021/07/30 09:47:01;;;;;;;12.38;5.97;;;20.00;89.80;;;;;;5105454;27;20035;-75
2021/07/30 09:49:44;;;;;;;14.77;5.53;;;20.00;90.00;;;;;;5107743;27;20476;-76
2021/07/30 09:52:12;;;;;;;11.45;4.93;;;20.10;88.60;;;;;;5113271;27;20036;-75
2021/07/30 09:54:44;;;;;;;10.45;6.07;;;20.10;87.00;;;;;;5097534;27;20042;-75
2021/07/30 09:57:12;;;;;;;13.98;5.30;;;20.10;87.20;;;;;;5125789;27;20034;-76
2021/07/30 09:59:42;;;;;;;12.23;5.65;;;20.00;87.10;;;;;;5110969;27;20050;-77
2021/07/30 10:02:14;;;;;;;8.07;5.20;;;20.00;86.40;;;;;;5109378;27;21302;-77
2021/07/30 10:04:45;;;;;;;10.93;4.57;;;19.90;87.10;;;;;;5093896;27;20462;-76
2021/07/30 10:07:16;;;;;;;11.60;6.10;;;19.90;87.90;;;;;;5127166;27;20067;-75
2021/07/30 10:09:54;;;;;;;11.60;5.78;;;20.00;88.80;;;;;;5108442;27;20039;-75
2021/07/30 10:12:21;;;;;;;9.57;5.47;;;20.10;87.90;;;;;;5127239;27;20035;-76
2021/07/30 10:14:48;;;;;;;13.32;5.25;;;20.20;87.60;;;;;;5079524;27;20055;-76
2021/07/30 10:17:16;;;;;;;10.13;5.18;;;20.20;87.70;;;;;;5133792;27;20072;-77
2021/07/30 10:19:45;;;;;;;10.25;6.07;;;20.40;85.70;;;;;;5115497;27;20066;-77
2021/07/30 10:22:14;;;;;;;11.80;5.07;;;20.50;86.60;;;;;;5114780;27;20035;-76
2021/07/30 10:24:47;;;;;;;11.97;6.07;;;20.60;86.90;;;;;;5105523;27;20043;-77
2021/07/30 10:27:14;;;;;;;8.73;5.63;;;20.70;86.80;;;;;;5108785;27;20039;-75
2021/07/30 10:30:02;;;;;;;11.45;4.97;;;20.70;86.30;;;;;;5128961;27;20039;-77
2021/07/30 10:32:46;;;;;;;9.98;5.15;;;20.80;86.20;;;;;;5127618;27;20066;-75
2021/07/30 10:35:14;;;;;;;10.52;5.05;;;20.80;85.00;;;;;;5131012;27;20046;-77
2021/07/30 10:37:47;;;;;;;8.07;4.53;;;20.80;85.10;;;;;;5124182;27;20075;-76
2021/07/30 10:40:21;;;;;;;8.07;4.05;;;20.80;85.10;;;;;;5133084;27;20385;-79
2021/07/30 10:43:00;;;;;;;10.57;4.20;;;20.90;83.30;;;;;;5129929;27;20039;-77
2021/07/30 10:45:27;;;;;;;11.07;4.78;;;21.00;83.40;;;;;;5111435;27;20039;-79
2021/07/30 10:48:11;;;;;;;8.68;4.75;;;21.20;82.80;;;;;;5097351;27;20088;-77
2021/07/30 10:50:45;;;;;;;10.55;4.93;;;21.30;82.60;;;;;;5112714;27;20062;-77
2021/07/30 10:53:42;;;;;;;10.13;4.50;;;21.30;82.70;;;;;;5126883;27;20038;-77
2021/07/30 10:56:27;;;;;;;9.73;5.10;;;21.30;81.50;;;;;;5130342;27;20047;-76
2021/07/30 10:58:54;;;;;;;8.40;4.20;;;21.30;82.80;;;;;;5124325;27;20394;-77
2021/07/30 11:01:43;;;;;;;8.77;4.35;;;21.30;83.80;;;;;;5109042;27;20039;-75
2021/07/30 11:04:10;;;;;;;9.02;4.43;;;21.50;83.90;;;;;;5107303;27;20068;-76
2021/07/30 11:06:39;;;;;;;13.20;4.90;;;21.70;83.50;;;;;;5092110;27;20043;-76
2021/07/30 11:09:05;;;;;;;9.88;4.55;;;22.00;82.50;;;;;;5108589;27;20043;-76
2021/07/30 11:11:40;;;;;;;8.85;4.72;;;22.20;80.70;;;;;;5111403;27;20035;-76
2021/07/30 11:14:14;;;;;;;8.45;4.72;;;22.40;80.90;;;;;;5104770;27;20052;-76
2021/07/30 11:17:11;;;;;;;9.80;5.20;;;22.50;80.40;;;;;;5108119;27;20042;-75
2021/07/30 11:19:48;;;;;;;9.25;4.50;;;22.40;80.60;;;;;;5113139;27;20054;-76
2021/07/30 11:22:19;;;;;;;10.65;3.75;;;22.40;81.40;;;;;;5097886;27;20028;-77
2021/07/30 11:24:52;;;;;;;11.15;4.35;;;22.40;80.80;;;;;;5108722;27;20043;-76
2021/07/30 11:27:20;;;;;;;10.45;3.75;;;22.40;79.60;;;;;;5127797;27;20522;-76
2021/07/30 11:29:55;;;;;;;8.80;4.20;;;22.50;80.40;;;;;;5116190;27;20534;-76
2021/07/30 11:32:25;;;;;;;7.07;4.18;;;22.60;79.40;;;;;;5124449;27;20076;-77
2021/07/30 11:34:55;;;;;;;6.50;3.42;;;22.60;78.90;;;;;;5127978;27;20485;-76
2021/07/30 11:37:26;;;;;;;6.20;3.22;;;22.60;76.60;;;;;;5103838;27;20039;-76
2021/07/30 11:39:57;;;;;;;8.10;3.70;;;22.40;77.10;;;;;;5134921;27;20039;-77
2021/07/30 11:42:26;;;;;;;7.95;2.95;;;22.20;77.00;;;;;;5125093;27;20046;-76
2021/07/30 11:44:55;;;;;;;8.30;3.97;;;22.00;76.90;;;;;;5134245;27;20035;-78
2021/07/30 11:47:22;;;;;;;6.00;3.33;;;21.80;80.10;;;;;;5109124;27;20597;-77
2021/07/30 11:50:07;;;;;;;5.97;3.20;;;21.70;81.50;;;;;;5124896;27;20042;-77
2021/07/30 11:52:34;;;;;;;6.45;3.30;;;21.80;80.10;;;;;;5119320;27;20042;-76
2021/07/30 11:55:15;;;;;;;7.25;4.75;;;21.80;80.60;;;;;;5092377;27;20042;-77
2021/07/30 11:57:41;;;;;;;8.77;6.18;;;21.80;79.70;;;;;;5107814;27;20578;-76
2021/07/30 12:00:07;;;;;;;7.15;3.92;;;21.90;80.10;;;;;;5100878;27;20149;-75
2021/07/30 12:02:33;;;;;;;8.82;3.75;;;22.00;80.50;;;;;;5107886;27;20047;-78
2021/07/30 12:04:59;;;;;;;7.72;3.50;;;22.00;80.90;;;;;;5087067;27;20065;-76
2021/07/30 12:07:26;;;;;;;9.10;3.53;;;22.00;80.20;;;;;;5094745;27;20509;-77
2021/07/30 12:10:03;;;;;;;7.07;3.47;;;22.00;79.50;;;;;;5124655;27;20084;-76
2021/07/30 12:12:41;;;;;;;9.05;4.97;;;22.00;79.30;;;;;;5107434;27;20039;-78
2021/07/30 12:15:09;;;;;;;9.88;4.20;;;22.00;79.80;;;;;;5091555;27;20497;-77
2021/07/30 12:17:35;;;;;;;7.00;4.63;;;22.00;79.30;;;;;;5123025;27;20043;-75
2021/07/30 12:20:05;;;;;;;8.18;3.45;;;22.00;80.20;;;;;;5097759;27;20031;-76
2021/07/30 12:22:45;;;;;;;9.68;3.65;;;22.00;78.20;;;;;;5122287;27;20035;-75
2021/07/30 12:25:31;;;;;;;11.60;3.78;;;21.90;78.80;;;;;;5107552;27;20172;-76
2021/07/30 12:28:13;;;;;;;8.43;3.20;;;21.90;80.50;;;;;;5114464;27;20041;-76
2021/07/30 12:30:40;;;;;;;5.03;2.78;;;21.90;78.60;;;;;;5132800;27;20043;-76
2021/07/30 12:33:29;;;;;;;7.07;3.22;;;21.90;77.80;;;;;;5088786;27;20046;-77
2021/07/30 12:36:31;;;;;;;6.72;3.53;;;21.90;78.70;;;;;;5087793;27;20509;-78
2021/07/30 12:39:01;;;;;;;9.40;3.75;;;21.90;78.20;;;;;;5093247;27;20079;-75
2021/07/30 12:41:30;;;;;;;6.45;3.45;;;22.00;78.20;;;;;;5127696;27;20035;-77
2021/07/30 12:44:17;;;;;;;12.17;3.97;;;22.10;78.90;;;;;;5105288;27;20092;-76
2021/07/30 12:46:50;;;;;;;7.07;3.55;;;22.20;79.40;;;;;;5104013;27;20046;-77